ADDS METAR Data

Data at: 0508 UTC 19 Jan 2018

METAR for:KWVL (Waterville/Lafleur A, ME, US)
Text:KWVL 190456Z AUTO 00000KT 10SM OVC036 M09/M11 A2983 RMK AO2 SLP135 T10941106 400111122 FZRANO
Temperature: -9.4°C ( 15°F)
Dewpoint:-10.6°C ( 13°F) [RH = 91%]
Pressure (altimeter):29.83 inches Hg (1010.2 mb) [Sea level pressure: 1013.5 mb]
Winds:calm
Visibility:10 or more sm (16+ km)
Ceiling:3600 feet AGL
Clouds: overcast cloud deck at 3600 feet AGL
QC Flag:automated observation with no human augmentation